sensor_id;sensor_type;location;lat;lon;timestamp;pressure;altitude;pressure_sealevel;temperature;humidity
62458;BME280;48509;52.122;5.250;2023-02-13T00:00:17;103782.0;;;9.58;87.09
62458;BME280;48509;52.122;5.250;2023-02-13T00:01:55;103779.0;;;9.81;85.69
62458;BME280;48509;52.122;5.250;2023-02-13T00:03:32;103775.0;;;9.57;87.03
62458;BME280;48509;52.122;5.250;2023-02-13T00:05:09;103779.0;;;9.58;86.6
62458;BME280;48509;52.122;5.250;2023-02-13T00:08:24;103777.0;;;9.61;87.32
62458;BME280;48509;52.122;5.250;2023-02-13T00:10:00;103776.0;;;9.44;88.35
62458;BME280;48509;52.122;5.250;2023-02-13T00:11:37;103771.0;;;9.46;88.12
62458;BME280;48509;52.122;5.250;2023-02-13T00:14:51;103775.0;;;9.5;87.44
62458;BME280;48509;52.122;5.250;2023-02-13T00:16:28;103776.0;;;9.25;89.65
62458;BME280;48509;52.122;5.250;2023-02-13T00:18:05;103773.0;;;9.48;88.79
62458;BME280;48509;52.122;5.250;2023-02-13T00:21:19;103772.0;;;9.65;86.64
62458;BME280;48509;52.122;5.250;2023-02-13T00:22:57;103765.00000000001;;;9.44;88.02
62458;BME280;48509;52.122;5.250;2023-02-13T00:24:33;103765.00000000001;;;9.38;89.52
62458;BME280;48509;52.122;5.250;2023-02-13T00:26:11;103759.99999999999;;;9.19;90.92
62458;BME280;48509;52.122;5.250;2023-02-13T00:29:29;103763.00000000001;;;9.42;90.37
62458;BME280;48509;52.122;5.250;2023-02-13T00:31:07;103765.00000000001;;;9.61;87.64
62458;BME280;48509;52.122;5.250;2023-02-13T00:32:44;103763.00000000001;;;9.4;88.17
62458;BME280;48509;52.122;5.250;2023-02-13T00:36:02;103758.99999999999;;;9.3;90.42
62458;BME280;48509;52.122;5.250;2023-02-13T00:37:41;103756.0;;;9.21;91.0
62458;BME280;48509;52.122;5.250;2023-02-13T00:39:17;103757.0;;;9.13;91.24
62458;BME280;48509;52.122;5.250;2023-02-13T00:40:54;103753.0;;;9.16;91.7
62458;BME280;48509;52.122;5.250;2023-02-13T00:44:08;103763.00000000001;;;8.98;93.03
62458;BME280;48509;52.122;5.250;2023-02-13T00:45:44;103758.0;;;9.14;92.26
62458;BME280;48509;52.122;5.250;2023-02-13T00:47:21;103759.99999999999;;;9.03;92.18
62458;BME280;48509;52.122;5.250;2023-02-13T00:50:34;103761.99999999999;;;9.02;92.29
62458;BME280;48509;52.122;5.250;2023-02-13T00:52:10;103759.99999999999;;;8.99;91.69
62458;BME280;48509;52.122;5.250;2023-02-13T00:53:47;103761.99999999999;;;9.06;92.65
62458;BME280;48509;52.122;5.250;2023-02-13T00:55:25;103752.0;;;9.09;92.41
62458;BME280;48509;52.122;5.250;2023-02-13T00:58:39;103750.0;;;9.24;91.57
62458;BME280;48509;52.122;5.250;2023-02-13T01:00:16;103749.0;;;9.25;90.8
62458;BME280;48509;52.122;5.250;2023-02-13T01:01:52;103752.0;;;9.03;92.45
62458;BME280;48509;52.122;5.250;2023-02-13T01:05:07;103755.0;;;9.06;92.32
62458;BME280;48509;52.122;5.250;2023-02-13T01:06:43;103751.0;;;9.19;91.3
62458;BME280;48509;52.122;5.250;2023-02-13T01:08:20;103754.0;;;9.07;91.81
62458;BME280;48509;52.122;5.250;2023-02-13T01:11:33;103754.0;;;9.0;92.03
62458;BME280;48509;52.122;5.250;2023-02-13T01:13:11;103757.0;;;9.06;92.42
62458;BME280;48509;52.122;5.250;2023-02-13T01:14:48;103753.0;;;9.39;89.69
62458;BME280;48509;52.122;5.250;2023-02-13T01:16:25;103753.0;;;9.36;88.11
62458;BME280;48509;52.122;5.250;2023-02-13T01:19:40;103754.0;;;9.14;90.44
62458;BME280;48509;52.122;5.250;2023-02-13T01:21:19;103752.0;;;9.15;91.57
62458;BME280;48509;52.122;5.250;2023-02-13T01:22:57;103749.0;;;9.31;90.28
62458;BME280;48509;52.122;5.250;2023-02-13T01:26:15;103752.0;;;9.38;89.22
62458;BME280;48509;52.122;5.250;2023-02-13T01:27:53;103751.0;;;9.3;89.25
62458;BME280;48509;52.122;5.250;2023-02-13T01:29:30;103749.0;;;9.25;89.77
62458;BME280;48509;52.122;5.250;2023-02-13T01:31:07;103750.0;;;9.27;89.73
62458;BME280;48509;52.122;5.250;2023-02-13T01:34:22;103749.0;;;9.47;89.3
62458;BME280;48509;52.122;5.250;2023-02-13T01:36:05;103742.0;;;9.42;87.91
62458;BME280;48509;52.122;5.250;2023-02-13T01:37:42;103741.00000000001;;;9.56;86.08
62458;BME280;48509;52.122;5.250;2023-02-13T01:39:19;103736.99999999999;;;9.73;85.31
62458;BME280;48509;52.122;5.250;2023-02-13T01:42:33;103740.00000000001;;;9.74;85.29
62458;BME280;48509;52.122;5.250;2023-02-13T01:45:22;103744.0;;;9.55;87.2
62458;BME280;48509;52.122;5.250;2023-02-13T01:47:07;103742.0;;;9.23;89.61
62458;BME280;48509;52.122;5.250;2023-02-13T01:48:45;103738.00000000001;;;9.24;89.53
62458;BME280;48509;52.122;5.250;2023-02-13T01:50:29;103742.0;;;9.3;89.03
62458;BME280;48509;52.122;5.250;2023-02-13T01:52:08;103738.00000000001;;;9.32;89.04
62458;BME280;48509;52.122;5.250;2023-02-13T01:55:28;103740.00000000001;;;9.56;87.73
62458;BME280;48509;52.122;5.250;2023-02-13T01:57:09;103734.99999999999;;;9.69;86.05
62458;BME280;48509;52.122;5.250;2023-02-13T01:58:52;103734.99999999999;;;9.73;84.91
62458;BME280;48509;52.122;5.250;2023-02-13T02:00:35;103732.0;;;9.76;84.39
62458;BME280;48509;52.122;5.250;2023-02-13T02:03:54;103733.99999999999;;;9.89;83.73
62458;BME280;48509;52.122;5.250;2023-02-13T02:05:33;103730.0;;;9.69;85.83
62458;BME280;48509;52.122;5.250;2023-02-13T02:07:14;103728.0;;;9.84;84.63
62458;BME280;48509;52.122;5.250;2023-02-13T02:09:00;103730.0;;;9.81;84.8
62458;BME280;48509;52.122;5.250;2023-02-13T02:10:40;103729.0;;;9.55;87.29
62458;BME280;48509;52.122;5.250;2023-02-13T02:14:02;103727.0;;;9.41;88.2
62458;BME280;48509;52.122;5.250;2023-02-13T02:15:40;103726.0;;;9.73;86.38
62458;BME280;48509;52.122;5.250;2023-02-13T02:17:18;103727.0;;;9.42;87.29
62458;BME280;48509;52.122;5.250;2023-02-13T02:21:12;103727.0;;;9.46;87.69
62458;BME280;48509;52.122;5.250;2023-02-13T02:24:14;103725.0;;;9.52;86.99
62458;BME280;48509;52.122;5.250;2023-02-13T02:34:21;103728.0;;;9.65;86.32
62458;BME280;48509;52.122;5.250;2023-02-13T02:36:14;103728.0;;;9.76;85.03
62458;BME280;48509;52.122;5.250;2023-02-13T02:38:13;103726.0;;;9.47;87.23
62458;BME280;48509;52.122;5.250;2023-02-13T02:40:21;103723.0;;;9.39;88.6
62458;BME280;48509;52.122;5.250;2023-02-13T02:43:58;103727.0;;;9.63;86.82
62458;BME280;48509;52.122;5.250;2023-02-13T02:45:47;103723.0;;;9.72;85.66
62458;BME280;48509;52.122;5.250;2023-02-13T02:50:14;103721.0;;;9.9;84.39
62458;BME280;48509;52.122;5.250;2023-02-13T02:51:58;103720.0;;;9.6;87.55
62458;BME280;48509;52.122;5.250;2023-02-13T02:53:43;103720.0;;;9.64;87.31
62458;BME280;48509;52.122;5.250;2023-02-13T02:55:34;103715.00000000001;;;9.61;88.17
62458;BME280;48509;52.122;5.250;2023-02-13T02:57:14;103713.00000000001;;;9.8;85.81
62458;BME280;48509;52.122;5.250;2023-02-13T03:07:17;103714.00000000001;;;9.78;84.87
62458;BME280;48509;52.122;5.250;2023-02-13T03:13:33;103715.00000000001;;;9.81;85.57
62458;BME280;48509;52.122;5.250;2023-02-13T03:15:16;103716.00000000001;;;9.82;84.77
62458;BME280;48509;52.122;5.250;2023-02-13T03:22:30;103715.00000000001;;;9.83;84.41
62458;BME280;48509;52.122;5.250;2023-02-13T03:24:16;103717.0;;;9.73;84.73
62458;BME280;48509;52.122;5.250;2023-02-13T03:26:12;103718.0;;;9.89;84.51
62458;BME280;48509;52.122;5.250;2023-02-13T03:30:40;103723.0;;;9.78;84.44
62458;BME280;48509;52.122;5.250;2023-02-13T03:32:38;103721.0;;;9.81;85.27
62458;BME280;48509;52.122;5.250;2023-02-13T03:34:23;103724.0;;;9.97;84.26
62458;BME280;48509;52.122;5.250;2023-02-13T03:40:12;103723.0;;;9.69;86.16
62458;BME280;48509;52.122;5.250;2023-02-13T03:41:56;103718.0;;;9.71;87.03
62458;BME280;48509;52.122;5.250;2023-02-13T03:43:40;103717.0;;;9.72;85.78
62458;BME280;48509;52.122;5.250;2023-02-13T03:45:52;103717.0;;;9.63;86.2
62458;BME280;48509;52.122;5.250;2023-02-13T03:47:31;103713.00000000001;;;9.56;87.31
62458;BME280;48509;52.122;5.250;2023-02-13T03:50:13;103711.99999999999;;;9.78;84.95
62458;BME280;48509;52.122;5.250;2023-02-13T03:51:54;103714.00000000001;;;9.56;86.27
62458;BME280;48509;52.122;5.250;2023-02-13T03:53:35;103715.00000000001;;;9.65;86.38
62458;BME280;48509;52.122;5.250;2023-02-13T03:59:28;103715.00000000001;;;9.89;84.29
62458;BME280;48509;52.122;5.250;2023-02-13T04:01:07;103709.99999999999;;;9.63;87.31
62458;BME280;48509;52.122;5.250;2023-02-13T04:02:53;103708.99999999999;;;9.41;88.56
62458;BME280;48509;52.122;5.250;2023-02-13T04:04:40;103709.99999999999;;;9.21;90.35
62458;BME280;48509;52.122;5.250;2023-02-13T04:06:20;103707.0;;;9.33;89.74
62458;BME280;48509;52.122;5.250;2023-02-13T04:08:02;103709.99999999999;;;9.24;90.14
62458;BME280;48509;52.122;5.250;2023-02-13T04:11:24;103705.0;;;9.17;90.02
62458;BME280;48509;52.122;5.250;2023-02-13T04:13:10;103708.0;;;9.24;90.05
62458;BME280;48509;52.122;5.250;2023-02-13T04:14:56;103705.0;;;9.14;89.91
62458;BME280;48509;52.122;5.250;2023-02-13T04:16:37;103709.99999999999;;;9.31;89.89
62458;BME280;48509;52.122;5.250;2023-02-13T04:19:57;103708.0;;;9.31;89.59
62458;BME280;48509;52.122;5.250;2023-02-13T04:21:35;103705.0;;;9.22;90.77
62458;BME280;48509;52.122;5.250;2023-02-13T04:23:14;103704.0;;;9.31;89.72
62458;BME280;48509;52.122;5.250;2023-02-13T04:24:51;103704.0;;;9.17;90.75
62458;BME280;48509;52.122;5.250;2023-02-13T04:28:11;103707.0;;;9.3;90.45
62458;BME280;48509;52.122;5.250;2023-02-13T04:29:47;103709.99999999999;;;9.3;90.01
62458;BME280;48509;52.122;5.250;2023-02-13T04:31:23;103707.0;;;9.42;89.24
62458;BME280;48509;52.122;5.250;2023-02-13T04:32:59;103707.0;;;9.4;88.81
62458;BME280;48509;52.122;5.250;2023-02-13T04:36:13;103705.0;;;9.31;89.73
62458;BME280;48509;52.122;5.250;2023-02-13T04:37:49;103705.0;;;9.14;91.56
62458;BME280;48509;52.122;5.250;2023-02-13T04:39:25;103700.0;;;9.14;91.0
62458;BME280;48509;52.122;5.250;2023-02-13T04:42:37;103702.0;;;9.14;91.28
62458;BME280;48509;52.122;5.250;2023-02-13T04:44:13;103700.0;;;9.17;91.35
62458;BME280;48509;52.122;5.250;2023-02-13T04:45:50;103702.0;;;9.19;90.68
62458;BME280;48509;52.122;5.250;2023-02-13T04:49:03;103704.0;;;9.25;90.67
62458;BME280;48509;52.122;5.250;2023-02-13T04:50:39;103701.0;;;9.18;91.27
62458;BME280;48509;52.122;5.250;2023-02-13T04:52:15;103701.0;;;9.28;91.12
62458;BME280;48509;52.122;5.250;2023-02-13T04:53:52;103699.0;;;9.24;90.6
62458;BME280;48509;52.122;5.250;2023-02-13T04:57:05;103697.0;;;9.32;90.7
62458;BME280;48509;52.122;5.250;2023-02-13T04:58:41;103691.00000000001;;;9.14;91.18
62458;BME280;48509;52.122;5.250;2023-02-13T05:00:18;103689.00000000001;;;9.0;92.59
62458;BME280;48509;52.122;5.250;2023-02-13T05:03:31;103688.00000000001;;;9.06;92.03
62458;BME280;48509;52.122;5.250;2023-02-13T05:05:07;103683.99999999999;;;8.98;92.33
62458;BME280;48509;52.122;5.250;2023-02-13T05:06:44;103676.0;;;9.03;92.17
62458;BME280;48509;52.122;5.250;2023-02-13T05:09:56;103678.0;;;8.99;92.26
62458;BME280;48509;52.122;5.250;2023-02-13T05:11:32;103683.99999999999;;;9.14;92.22
62458;BME280;48509;52.122;5.250;2023-02-13T05:13:08;103689.00000000001;;;9.19;91.16
62458;BME280;48509;52.122;5.250;2023-02-13T05:14:45;103688.00000000001;;;9.0;92.85
62458;BME280;48509;52.122;5.250;2023-02-13T05:17:57;103683.0;;;8.99;92.87
62458;BME280;48509;52.122;5.250;2023-02-13T05:19:33;103682.0;;;9.24;91.71
62458;BME280;48509;52.122;5.250;2023-02-13T05:23:31;103679.0;;;9.06;92.18
62458;BME280;48509;52.122;5.250;2023-02-13T05:25:07;103680.0;;;9.23;91.58
62458;BME280;48509;52.122;5.250;2023-02-13T05:26:44;103677.0;;;9.31;90.74
62458;BME280;48509;52.122;5.250;2023-02-13T05:29:24;103680.0;;;9.21;91.35
62458;BME280;48509;52.122;5.250;2023-02-13T05:31:01;103673.0;;;9.31;90.83
62458;BME280;48509;52.122;5.250;2023-02-13T05:32:37;103677.0;;;9.32;90.4
62458;BME280;48509;52.122;5.250;2023-02-13T05:34:13;103675.0;;;9.48;88.91
62458;BME280;48509;52.122;5.250;2023-02-13T05:35:50;103677.0;;;9.35;90.17
62458;BME280;48509;52.122;5.250;2023-02-13T05:39:03;103675.0;;;9.27;90.56
62458;BME280;48509;52.122;5.250;2023-02-13T05:40:39;103675.0;;;9.39;90.24
62458;BME280;48509;52.122;5.250;2023-02-13T05:42:15;103671.0;;;9.22;91.02
62458;BME280;48509;52.122;5.250;2023-02-13T05:45:27;103674.0;;;9.48;89.71
62458;BME280;48509;52.122;5.250;2023-02-13T05:47:04;103675.0;;;9.55;88.57
62458;BME280;48509;52.122;5.250;2023-02-13T05:48:40;103677.0;;;9.4;89.82
62458;BME280;48509;52.122;5.250;2023-02-13T05:51:52;103676.0;;;9.26;90.62
62458;BME280;48509;52.122;5.250;2023-02-13T05:53:28;103680.0;;;9.34;90.92
62458;BME280;48509;52.122;5.250;2023-02-13T05:55:05;103676.0;;;9.4;90.9
62458;BME280;48509;52.122;5.250;2023-02-13T05:56:42;103678.0;;;9.27;91.24
62458;BME280;48509;52.122;5.250;2023-02-13T05:59:56;103675.0;;;9.55;90.15
62458;BME280;48509;52.122;5.250;2023-02-13T06:01:32;103678.0;;;9.26;91.54
62458;BME280;48509;52.122;5.250;2023-02-13T06:03:09;103680.0;;;9.19;91.71
62458;BME280;48509;52.122;5.250;2023-02-13T06:06:22;103680.0;;;9.02;93.37
62458;BME280;48509;52.122;5.250;2023-02-13T06:07:58;103679.0;;;9.17;92.75
62458;BME280;48509;52.122;5.250;2023-02-13T06:09:34;103683.99999999999;;;9.05;93.06
62458;BME280;48509;52.122;5.250;2023-02-13T06:12:46;103682.0;;;9.19;92.19
62458;BME280;48509;52.122;5.250;2023-02-13T06:14:23;103682.0;;;9.26;91.66
62458;BME280;48509;52.122;5.250;2023-02-13T06:15:59;103683.0;;;9.05;93.35
62458;BME280;48509;52.122;5.250;2023-02-13T06:17:35;103683.0;;;9.11;93.79
62458;BME280;48509;52.122;5.250;2023-02-13T06:20:47;103679.0;;;9.39;92.12
62458;BME280;48509;52.122;5.250;2023-02-13T06:22:23;103682.0;;;9.51;91.24
62458;BME280;48509;52.122;5.250;2023-02-13T06:23:59;103681.0;;;9.48;91.04
62458;BME280;48509;52.122;5.250;2023-02-13T06:27:13;103682.0;;;9.3;91.74
62458;BME280;48509;52.122;5.250;2023-02-13T06:28:49;103679.0;;;9.52;90.62
62458;BME280;48509;52.122;5.250;2023-02-13T06:30:25;103678.0;;;9.5;89.7
62458;BME280;48509;52.122;5.250;2023-02-13T06:33:38;103686.99999999999;;;9.18;91.98
62458;BME280;48509;52.122;5.250;2023-02-13T06:35:15;103688.00000000001;;;9.21;92.51
62458;BME280;48509;52.122;5.250;2023-02-13T06:36:52;103683.99999999999;;;9.08;93.03
62458;BME280;48509;52.122;5.250;2023-02-13T06:38:28;103679.0;;;9.22;91.97
62458;BME280;48509;52.122;5.250;2023-02-13T06:41:42;103683.99999999999;;;9.02;94.24
62458;BME280;48509;52.122;5.250;2023-02-13T06:43:19;103679.0;;;8.9;95.41
62458;BME280;48509;52.122;5.250;2023-02-13T06:44:55;103686.99999999999;;;9.23;94.13
62458;BME280;48509;52.122;5.250;2023-02-13T06:48:07;103684.99999999999;;;9.34;92.92
62458;BME280;48509;52.122;5.250;2023-02-13T06:49:43;103683.99999999999;;;9.57;91.56
62458;BME280;48509;52.122;5.250;2023-02-13T06:51:19;103684.99999999999;;;9.58;91.1
62458;BME280;48509;52.122;5.250;2023-02-13T06:54:32;103683.0;;;9.46;91.07
62458;BME280;48509;52.122;5.250;2023-02-13T06:56:08;103684.99999999999;;;9.35;91.6
62458;BME280;48509;52.122;5.250;2023-02-13T06:57:46;103688.00000000001;;;9.24;92.76
62458;BME280;48509;52.122;5.250;2023-02-13T06:59:22;103688.00000000001;;;9.32;91.92
62458;BME280;48509;52.122;5.250;2023-02-13T07:02:36;103690.00000000001;;;9.21;93.14
62458;BME280;48509;52.122;5.250;2023-02-13T07:04:12;103690.00000000001;;;9.22;93.16
62458;BME280;48509;52.122;5.250;2023-02-13T07:05:51;103692.0;;;9.39;92.55
62458;BME280;48509;52.122;5.250;2023-02-13T07:09:07;103691.00000000001;;;9.14;93.85
62458;BME280;48509;52.122;5.250;2023-02-13T07:10:44;103690.00000000001;;;9.31;93.27
62458;BME280;48509;52.122;5.250;2023-02-13T07:12:20;103691.00000000001;;;9.57;91.53
62458;BME280;48509;52.122;5.250;2023-02-13T07:15:33;103690.00000000001;;;9.56;91.54
62458;BME280;48509;52.122;5.250;2023-02-13T07:17:10;103694.0;;;9.55;91.3
62458;BME280;48509;52.122;5.250;2023-02-13T07:18:46;103692.0;;;9.36;92.08
62458;BME280;48509;52.122;5.250;2023-02-13T07:20:23;103684.99999999999;;;9.32;93.26
62458;BME280;48509;52.122;5.250;2023-02-13T07:23:36;103686.99999999999;;;9.5;92.16
62458;BME280;48509;52.122;5.250;2023-02-13T07:25:12;103690.00000000001;;;9.28;92.86
62458;BME280;48509;52.122;5.250;2023-02-13T07:26:48;103683.99999999999;;;9.39;92.64
62458;BME280;48509;52.122;5.250;2023-02-13T07:30:02;103691.00000000001;;;9.18;93.29
62458;BME280;48509;52.122;5.250;2023-02-13T07:31:39;103690.00000000001;;;9.44;92.45
62458;BME280;48509;52.122;5.250;2023-02-13T07:33:15;103692.0;;;9.14;93.2
62458;BME280;48509;52.122;5.250;2023-02-13T07:36:27;103692.0;;;9.02;93.46
62458;BME280;48509;52.122;5.250;2023-02-13T07:38:03;103698.0;;;9.15;92.89
62458;BME280;48509;52.122;5.250;2023-02-13T07:39:40;103694.0;;;8.99;93.57
62458;BME280;48509;52.122;5.250;2023-02-13T07:41:17;103691.00000000001;;;8.92;93.55
62458;BME280;48509;52.122;5.250;2023-02-13T07:44:29;103695.0;;;9.05;93.46
62458;BME280;48509;52.122;5.250;2023-02-13T07:46:05;103699.0;;;8.77;94.5
62458;BME280;48509;52.122;5.250;2023-02-13T07:47:42;103700.0;;;8.98;93.92
62458;BME280;48509;52.122;5.250;2023-02-13T07:50:54;103704.0;;;8.83;94.59
62458;BME280;48509;52.122;5.250;2023-02-13T07:52:36;103705.0;;;8.73;94.48
62458;BME280;48509;52.122;5.250;2023-02-13T07:54:12;103705.0;;;8.77;94.53
62458;BME280;48509;52.122;5.250;2023-02-13T07:55:49;103709.99999999999;;;8.76;95.21
62458;BME280;48509;52.122;5.250;2023-02-13T07:59:01;103714.00000000001;;;8.73;95.11
62458;BME280;48509;52.122;5.250;2023-02-13T08:00:38;103717.0;;;8.77;95.07
62458;BME280;48509;52.122;5.250;2023-02-13T08:02:14;103725.0;;;8.71;95.1
62458;BME280;48509;52.122;5.250;2023-02-13T08:05:27;103721.0;;;8.81;95.15
62458;BME280;48509;52.122;5.250;2023-02-13T08:07:05;103726.0;;;8.65;96.15
62458;BME280;48509;52.122;5.250;2023-02-13T08:08:41;103726.0;;;8.56;96.54
62458;BME280;48509;52.122;5.250;2023-02-13T08:13:52;103733.99999999999;;;8.59;96.98
62458;BME280;48509;52.122;5.250;2023-02-13T08:15:28;103734.99999999999;;;8.49;97.24
62458;BME280;48509;52.122;5.250;2023-02-13T08:17:04;103736.99999999999;;;8.6;97.02
62458;BME280;48509;52.122;5.250;2023-02-13T08:20:16;103734.99999999999;;;8.68;97.22
62458;BME280;48509;52.122;5.250;2023-02-13T08:21:53;103732.0;;;8.55;97.76
62458;BME280;48509;52.122;5.250;2023-02-13T08:23:30;103733.99999999999;;;8.67;97.48
62458;BME280;48509;52.122;5.250;2023-02-13T08:26:43;103732.0;;;8.72;98.01
62458;BME280;48509;52.122;5.250;2023-02-13T08:28:19;103734.99999999999;;;8.73;97.79
62458;BME280;48509;52.122;5.250;2023-02-13T08:29:55;103730.0;;;8.86;97.48
62458;BME280;48509;52.122;5.250;2023-02-13T08:31:32;103732.0;;;8.76;97.8
62458;BME280;48509;52.122;5.250;2023-02-13T08:34:45;103733.99999999999;;;8.84;97.49
62458;BME280;48509;52.122;5.250;2023-02-13T08:36:21;103730.0;;;8.88;97.8
62458;BME280;48509;52.122;5.250;2023-02-13T08:38:01;103729.0;;;8.82;98.62
62458;BME280;48509;52.122;5.250;2023-02-13T08:41:14;103728.0;;;8.92;98.7
62458;BME280;48509;52.122;5.250;2023-02-13T08:42:51;103724.0;;;8.98;98.96
62458;BME280;48509;52.122;5.250;2023-02-13T08:44:27;103726.0;;;9.03;98.78
62458;BME280;48509;52.122;5.250;2023-02-13T08:46:03;103725.0;;;9.14;98.1
62458;BME280;48509;52.122;5.250;2023-02-13T08:49:16;103726.0;;;9.14;98.4
62458;BME280;48509;52.122;5.250;2023-02-13T08:50:52;103730.0;;;9.13;98.44
62458;BME280;48509;52.122;5.250;2023-02-13T08:52:29;103725.0;;;9.19;98.11
62458;BME280;48509;52.122;5.250;2023-02-13T08:55:41;103728.0;;;9.35;97.5
62458;BME280;48509;52.122;5.250;2023-02-13T08:57:17;103734.99999999999;;;9.39;97.66
62458;BME280;48509;52.122;5.250;2023-02-13T08:58:54;103738.00000000001;;;9.41;97.4
62458;BME280;48509;52.122;5.250;2023-02-13T09:02:09;103734.99999999999;;;9.61;96.57
62458;BME280;48509;52.122;5.250;2023-02-13T09:03:49;103739.00000000001;;;9.65;96.39
62458;BME280;48509;52.122;5.250;2023-02-13T09:05:25;103741.00000000001;;;9.67;96.35
62458;BME280;48509;52.122;5.250;2023-02-13T09:07:02;103736.99999999999;;;9.74;96.27
62458;BME280;48509;52.122;5.250;2023-02-13T09:10:16;103734.99999999999;;;9.71;96.21
62458;BME280;48509;52.122;5.250;2023-02-13T09:11:55;103736.99999999999;;;9.69;96.37
62458;BME280;48509;52.122;5.250;2023-02-13T09:13:34;103734.99999999999;;;9.73;95.8
62458;BME280;48509;52.122;5.250;2023-02-13T09:16:47;103736.99999999999;;;9.85;95.49
62458;BME280;48509;52.122;5.250;2023-02-13T09:18:23;103740.00000000001;;;9.84;95.26
62458;BME280;48509;52.122;5.250;2023-02-13T09:19:59;103738.00000000001;;;9.99;94.78
62458;BME280;48509;52.122;5.250;2023-02-13T09:21:35;103734.99999999999;;;9.94;95.34
62458;BME280;48509;52.122;5.250;2023-02-13T09:24:48;103734.99999999999;;;9.99;95.34
62458;BME280;48509;52.122;5.250;2023-02-13T09:26:24;103733.0;;;10.13;94.49
62458;BME280;48509;52.122;5.250;2023-02-13T09:28:00;103732.0;;;10.11;95.53
62458;BME280;48509;52.122;5.250;2023-02-13T09:31:15;103729.0;;;10.15;94.47
62458;BME280;48509;52.122;5.250;2023-02-13T09:32:53;103732.0;;;10.26;94.43
62458;BME280;48509;52.122;5.250;2023-02-13T09:34:30;103733.99999999999;;;10.46;93.46
62458;BME280;48509;52.122;5.250;2023-02-13T09:37:45;103729.0;;;10.68;92.03
62458;BME280;48509;52.122;5.250;2023-02-13T09:39:22;103727.0;;;10.62;91.67
62458;BME280;48509;52.122;5.250;2023-02-13T09:41:01;103723.0;;;10.7;91.88
62458;BME280;48509;52.122;5.250;2023-02-13T09:42:38;103727.0;;;10.89;91.01
62458;BME280;48509;52.122;5.250;2023-02-13T09:46:17;103723.0;;;11.01;90.53
62458;BME280;48509;52.122;5.250;2023-02-13T09:47:55;103722.0;;;11.02;90.05
62458;BME280;48509;52.122;5.250;2023-02-13T09:49:35;103723.0;;;11.21;89.01
62458;BME280;48509;52.122;5.250;2023-02-13T09:51:15;103724.0;;;11.23;88.37
62458;BME280;48509;52.122;5.250;2023-02-13T09:54:32;103723.0;;;11.21;88.3
62458;BME280;48509;52.122;5.250;2023-02-13T09:56:12;103717.0;;;11.29;87.71
62458;BME280;48509;52.122;5.250;2023-02-13T09:57:56;103720.0;;;11.11;89.02
62458;BME280;48509;52.122;5.250;2023-02-13T09:59:44;103722.0;;;10.92;88.96
62458;BME280;48509;52.122;5.250;2023-02-13T10:01:28;103719.0;;;11.15;87.9
62458;BME280;48509;52.122;5.250;2023-02-13T10:05:16;103721.0;;;11.11;88.54
62458;BME280;48509;52.122;5.250;2023-02-13T10:07:07;103721.0;;;10.93;88.05
62458;BME280;48509;52.122;5.250;2023-02-13T10:08:57;103721.0;;;11.19;87.78
62458;BME280;48509;52.122;5.250;2023-02-13T10:10:49;103720.0;;;11.21;87.06
62458;BME280;48509;52.122;5.250;2023-02-13T10:12:37;103721.0;;;11.38;87.19
62458;BME280;48509;52.122;5.250;2023-02-13T10:14:25;103716.00000000001;;;11.39;85.48
62458;BME280;48509;52.122;5.250;2023-02-13T10:16:09;103719.0;;;11.39;86.82
62458;BME280;48509;52.122;5.250;2023-02-13T10:19:35;103718.0;;;11.17;86.84
62458;BME280;48509;52.122;5.250;2023-02-13T10:21:19;103720.0;;;11.19;86.02
62458;BME280;48509;52.122;5.250;2023-02-13T10:23:04;103722.0;;;11.3;86.68
62458;BME280;48509;52.122;5.250;2023-02-13T10:24:47;103717.0;;;11.46;85.8
62458;BME280;48509;52.122;5.250;2023-02-13T10:26:43;103716.00000000001;;;11.57;85.52
62458;BME280;48509;52.122;5.250;2023-02-13T10:30:18;103713.00000000001;;;11.39;86.59
62458;BME280;48509;52.122;5.250;2023-02-13T10:31:58;103713.00000000001;;;11.52;85.45
62458;BME280;48509;52.122;5.250;2023-02-13T10:33:42;103706.0;;;11.41;84.16
62458;BME280;48509;52.122;5.250;2023-02-13T10:35:26;103700.0;;;11.49;84.39
62458;BME280;48509;52.122;5.250;2023-02-13T10:37:10;103705.0;;;11.38;84.18
62458;BME280;48509;52.122;5.250;2023-02-13T10:40:39;103708.99999999999;;;11.28;85.39
62458;BME280;48509;52.122;5.250;2023-02-13T10:42:28;103703.0;;;11.26;85.36
62458;BME280;48509;52.122;5.250;2023-02-13T10:44:22;103703.0;;;11.18;86.58
62458;BME280;48509;52.122;5.250;2023-02-13T10:46:13;103705.0;;;11.35;86.11
62458;BME280;48509;52.122;5.250;2023-02-13T10:48:04;103703.0;;;11.31;85.65
62458;BME280;48509;52.122;5.250;2023-02-13T10:49:58;103704.0;;;11.33;86.03
62458;BME280;48509;52.122;5.250;2023-02-13T10:51:43;103696.0;;;11.47;85.5
62458;BME280;48509;52.122;5.250;2023-02-13T10:55:28;103698.0;;;11.6;84.91
62458;BME280;48509;52.122;5.250;2023-02-13T10:57:15;103700.0;;;11.5;85.26
62458;BME280;48509;52.122;5.250;2023-02-13T10:59:07;103699.0;;;11.42;84.66
62458;BME280;48509;52.122;5.250;2023-02-13T11:00:56;103699.0;;;11.38;85.55
62458;BME280;48509;52.122;5.250;2023-02-13T11:02:36;103701.0;;;11.55;84.85
62458;BME280;48509;52.122;5.250;2023-02-13T11:04:13;103701.0;;;11.4;84.07
62458;BME280;48509;52.122;5.250;2023-02-13T11:07:33;103696.0;;;11.61;83.57
62458;BME280;48509;52.122;5.250;2023-02-13T11:09:12;103697.0;;;11.52;84.76
62458;BME280;48509;52.122;5.250;2023-02-13T11:10:48;103690.00000000001;;;11.63;84.31
62458;BME280;48509;52.122;5.250;2023-02-13T11:14:09;103694.0;;;11.63;84.52
62458;BME280;48509;52.122;5.250;2023-02-13T11:15:57;103695.0;;;11.6;84.39
62458;BME280;48509;52.122;5.250;2023-02-13T11:17:38;103694.0;;;11.55;83.64
62458;BME280;48509;52.122;5.250;2023-02-13T11:19:19;103686.99999999999;;;11.59;85.08
62458;BME280;48509;52.122;5.250;2023-02-13T11:20:59;103690.00000000001;;;11.6;85.48